Time;durP1;ratioP1;P1;durP2;ratioP2;P2;SDS_P1;SDS_P2;PMS_P1;PMS_P2;Temp;Humidity;BMP_temperature;BMP_pressure;BME280_temperature;BME280_humidity;BME280_pressure;Samples;Min_cycle;Max_cycle;Signal;HPM_P1;HPM_P2
2023/12/11 00:02:22;;;;;;;16.57;5.90;;;6.60;99.90;;;;;;5116063;28;20185;-49
2023/12/11 00:04:48;;;;;;;14.20;5.60;;;6.60;99.90;;;;;;5116059;28;20532;-49
2023/12/11 00:07:14;;;;;;;18.37;6.00;;;6.60;99.90;;;;;;5115750;28;20224;-49
2023/12/11 00:09:40;;;;;;;12.57;4.80;;;6.60;99.90;;;;;;5116064;28;20217;-49
2023/12/11 00:12:06;;;;;;;14.87;6.00;;;6.60;99.90;;;;;;5115794;28;20411;-49
2023/12/11 00:14:32;;;;;;;15.93;5.17;;;6.60;99.90;;;;;;5115477;28;20215;-49
2023/12/11 00:16:58;;;;;;;15.70;4.70;;;6.50;99.90;;;;;;5115870;28;20482;-49
2023/12/11 00:19:24;;;;;;;11.63;4.30;;;6.50;99.90;;;;;;5115724;28;20586;-49
2023/12/11 00:21:49;;;;;;;14.80;5.60;;;6.50;99.90;;;;;;5115887;28;20259;-49
2023/12/11 00:24:15;;;;;;;16.97;4.80;;;6.60;99.90;;;;;;5115585;28;20413;-49
2023/12/11 00:26:41;;;;;;;9.70;4.57;;;6.50;99.90;;;;;;5115921;28;20223;-49
2023/12/11 00:29:07;;;;;;;16.47;4.50;;;6.50;99.90;;;;;;5115657;28;20509;-49
2023/12/11 00:31:32;;;;;;;15.90;4.97;;;6.40;99.90;;;;;;5115451;28;20171;-49
2023/12/11 00:33:58;;;;;;;14.23;4.27;;;6.50;99.90;;;;;;5115900;28;20196;-49
2023/12/11 00:36:24;;;;;;;8.67;3.63;;;6.50;99.90;;;;;;5115457;28;20191;-49
2023/12/11 00:38:49;;;;;;;14.73;3.67;;;6.50;99.90;;;;;;5115326;28;20185;-49
2023/12/11 00:41:16;;;;;;;12.83;3.90;;;6.40;99.90;;;;;;5115417;28;20423;-50
2023/12/11 00:43:42;;;;;;;8.57;3.27;;;6.40;99.90;;;;;;5115488;28;20184;-50
2023/12/11 00:46:14;;;;;;;12.73;2.93;;;6.40;99.90;;;;;;5115398;28;20774;-49
2023/12/11 00:48:39;;;;;;;15.70;3.50;;;6.30;99.90;;;;;;5115392;28;20197;-49
2023/12/11 00:51:05;;;;;;;12.67;3.23;;;6.40;99.90;;;;;;5115269;28;20847;-49
2023/12/11 00:53:31;;;;;;;8.07;2.90;;;6.30;99.90;;;;;;5115065;28;20192;-49
2023/12/11 00:55:56;;;;;;;13.33;3.60;;;6.30;99.90;;;;;;5115182;28;20802;-50
2023/12/11 00:58:22;;;;;;;7.10;3.00;;;6.30;99.90;;;;;;5114906;28;20191;-50
2023/12/11 01:00:47;;;;;;;11.00;3.90;;;6.20;99.90;;;;;;5115179;28;20179;-49
2023/12/11 01:03:13;;;;;;;11.73;4.13;;;6.30;99.90;;;;;;5115009;28;20184;-49
2023/12/11 01:05:39;;;;;;;7.00;3.40;;;6.40;99.90;;;;;;5114932;28;20240;-49
2023/12/11 01:08:04;;;;;;;9.57;3.33;;;6.40;99.90;;;;;;5114936;28;20602;-50
2023/12/11 01:10:30;;;;;;;4.90;3.10;;;6.40;99.90;;;;;;5114611;28;20583;-50
2023/12/11 01:12:56;;;;;;;13.87;3.90;;;6.50;99.90;;;;;;5114446;28;20207;-50
2023/12/11 01:15:21;;;;;;;10.40;3.33;;;6.50;99.90;;;;;;5114526;28;20254;-49
2023/12/11 01:17:47;;;;;;;11.50;4.30;;;6.50;99.90;;;;;;5114505;28;20759;-49
2023/12/11 01:20:12;;;;;;;9.90;4.43;;;6.50;99.90;;;;;;5114530;28;20176;-50
2023/12/11 01:22:38;;;;;;;6.50;3.33;;;6.50;99.90;;;;;;5114655;28;20633;-50
2023/12/11 01:25:04;;;;;;;6.67;3.83;;;6.40;99.90;;;;;;5114953;28;20172;-50
2023/12/11 01:27:30;;;;;;;12.03;3.70;;;6.40;99.90;;;;;;5114133;28;20212;-50
2023/12/11 01:29:55;;;;;;;14.73;4.60;;;6.50;99.90;;;;;;5114386;28;20240;-50
2023/12/11 01:32:21;;;;;;;11.87;4.60;;;6.50;99.90;;;;;;5114242;28;20193;-50
2023/12/11 01:34:46;;;;;;;8.00;4.00;;;6.50;99.90;;;;;;5114549;28;20176;-50
2023/12/11 01:37:12;;;;;;;16.00;4.60;;;6.60;99.90;;;;;;5114289;28;20177;-50
2023/12/11 01:39:37;;;;;;;8.20;4.70;;;6.50;99.90;;;;;;5114255;28;20648;-50
2023/12/11 01:42:03;;;;;;;9.40;4.17;;;6.50;99.90;;;;;;5114514;28;20177;-50
2023/12/11 01:44:30;;;;;;;11.67;4.80;;;6.40;99.90;;;;;;5114144;28;20722;-49
2023/12/11 01:46:56;;;;;;;11.60;4.53;;;6.40;99.90;;;;;;5114171;28;20215;-49
2023/12/11 01:49:21;;;;;;;11.53;4.50;;;6.40;99.90;;;;;;5114196;28;20410;-50
2023/12/11 01:51:47;;;;;;;7.83;4.73;;;6.50;99.90;;;;;;5114108;28;20778;-50
2023/12/11 01:54:14;;;;;;;12.70;5.07;;;6.50;99.90;;;;;;5114154;28;20725;-50
2023/12/11 01:56:41;;;;;;;13.63;5.40;;;6.50;99.90;;;;;;5113780;28;20916;-50
2023/12/11 01:59:06;;;;;;;10.90;5.03;;;6.50;99.90;;;;;;5114236;28;20430;-50
2023/12/11 02:01:35;;;;;;;18.83;5.93;;;6.50;99.90;;;;;;5114203;28;20412;-50
2023/12/11 02:04:00;;;;;;;12.87;6.33;;;6.50;99.90;;;;;;5113995;28;20190;-50
2023/12/11 02:06:26;;;;;;;12.40;5.97;;;6.50;99.90;;;;;;5113322;28;20500;-50
2023/12/11 02:08:52;;;;;;;12.23;6.13;;;6.60;99.90;;;;;;5114100;28;20184;-50
2023/12/11 02:11:18;;;;;;;13.93;6.10;;;6.60;99.90;;;;;;5113900;28;20275;-50
2023/12/11 02:13:44;;;;;;;27.00;6.53;;;6.70;99.90;;;;;;5113692;28;20279;-50
2023/12/11 02:16:15;;;;;;;10.80;6.10;;;6.70;99.90;;;;;;5113636;28;20823;-50
2023/12/11 02:18:41;;;;;;;11.33;6.83;;;6.80;99.90;;;;;;5113847;28;20180;-50
2023/12/11 02:21:07;;;;;;;13.10;7.43;;;6.90;99.90;;;;;;5114246;28;20517;-50
2023/12/11 02:23:53;;;;;;;11.40;7.07;;;6.90;99.90;;;;;;5113108;28;20941;-50
2023/12/11 02:26:19;;;;;;;13.30;7.83;;;6.90;99.90;;;;;;5113412;28;20349;-50
2023/12/11 02:28:45;;;;;;;17.10;7.93;;;7.00;99.90;;;;;;5113700;28;20469;-50
2023/12/11 02:31:11;;;;;;;19.10;7.73;;;7.00;99.90;;;;;;5113724;28;20780;-50
2023/12/11 02:33:37;;;;;;;17.90;8.27;;;7.00;99.90;;;;;;5113698;28;20466;-50
2023/12/11 02:36:03;;;;;;;16.37;8.10;;;7.00;99.90;;;;;;5113750;28;20648;-50
2023/12/11 02:38:28;;;;;;;18.47;8.90;;;7.10;99.90;;;;;;5113750;28;20418;-49
2023/12/11 02:40:54;;;;;;;17.53;9.37;;;7.20;99.90;;;;;;5113880;28;20764;-50
2023/12/11 02:43:20;;;;;;;22.87;9.00;;;7.20;99.90;;;;;;5113546;28;20542;-50
2023/12/11 02:45:45;;;;;;;17.03;9.17;;;7.20;99.90;;;;;;5113384;28;20183;-50
2023/12/11 02:48:11;;;;;;;23.10;10.03;;;7.30;99.90;;;;;;5113671;28;20211;-49
2023/12/11 02:50:37;;;;;;;26.27;11.20;;;7.40;99.90;;;;;;5113465;28;20249;-50
2023/12/11 02:53:04;;;;;;;21.83;11.43;;;7.40;99.90;;;;;;5113894;28;20406;-50
2023/12/11 02:55:30;;;;;;;29.80;11.10;;;7.50;99.90;;;;;;5113170;28;20426;-50
2023/12/11 02:58:00;;;;;;;24.23;10.10;;;7.50;99.90;;;;;;5113379;28;20412;-50
2023/12/11 03:00:27;;;;;;;18.90;9.47;;;7.50;99.90;;;;;;5113367;28;20403;-49
2023/12/11 03:02:53;;;;;;;24.53;10.60;;;7.50;99.90;;;;;;5113250;28;20425;-50
2023/12/11 03:05:18;;;;;;;22.70;9.67;;;7.60;99.90;;;;;;5112928;28;20462;-50
2023/12/11 03:07:44;;;;;;;22.40;9.50;;;7.60;99.90;;;;;;5113396;28;20456;-50
2023/12/11 03:10:10;;;;;;;24.50;11.10;;;7.50;99.90;;;;;;5113569;28;20644;-50
2023/12/11 03:12:36;;;;;;;22.90;9.93;;;7.60;99.90;;;;;;5113371;28;20623;-50
2023/12/11 03:15:03;;;;;;;27.73;10.40;;;7.70;99.90;;;;;;5112869;28;20244;-50
2023/12/11 03:17:28;;;;;;;24.53;10.20;;;7.70;99.90;;;;;;5113245;28;20184;-50
2023/12/11 03:19:54;;;;;;;29.50;9.50;;;7.80;99.90;;;;;;5113328;28;20979;-50
2023/12/11 03:22:20;;;;;;;26.23;9.20;;;7.90;99.90;;;;;;5112877;28;20270;-50
2023/12/11 03:24:46;;;;;;;35.60;10.70;;;7.90;99.90;;;;;;5113206;28;20225;-50
2023/12/11 03:27:12;;;;;;;35.90;9.17;;;8.00;99.90;;;;;;5112982;28;20295;-50
2023/12/11 03:29:38;;;;;;;23.10;8.53;;;8.00;99.90;;;;;;5112823;28;20446;-50
2023/12/11 03:32:04;;;;;;;25.50;8.50;;;8.00;99.90;;;;;;5112912;28;20455;-49
2023/12/11 03:34:29;;;;;;;22.73;8.00;;;8.00;99.90;;;;;;5113361;28;20256;-49
2023/12/11 03:36:55;;;;;;;24.57;8.33;;;8.00;99.90;;;;;;5116776;28;20176;-50
2023/12/11 03:39:21;;;;;;;22.83;7.90;;;8.00;99.90;;;;;;5116964;28;20658;-50
2023/12/11 03:41:48;;;;;;;29.33;9.40;;;8.00;99.90;;;;;;5116668;28;20241;-50
2023/12/11 03:44:13;;;;;;;24.57;8.27;;;8.00;99.90;;;;;;5116937;28;20180;-50
2023/12/11 03:46:39;;;;;;;19.50;8.40;;;8.10;99.90;;;;;;5116464;28;20406;-50
2023/12/11 03:49:05;;;;;;;25.57;7.53;;;8.10;99.90;;;;;;5116254;28;20664;-50
2023/12/11 03:51:30;;;;;;;19.37;6.77;;;8.10;99.90;;;;;;5116254;28;20176;-50
2023/12/11 03:53:56;;;;;;;23.10;5.73;;;8.10;99.90;;;;;;5116571;28;20255;-49
2023/12/11 03:56:22;;;;;;;22.50;6.77;;;8.10;99.90;;;;;;5116476;28;20184;-50
2023/12/11 03:58:47;;;;;;;33.37;6.03;;;8.10;99.90;;;;;;5116318;28;20417;-50
2023/12/11 04:01:13;;;;;;;25.50;6.17;;;8.00;99.90;;;;;;5116456;28;20187;-50
2023/12/11 04:03:38;;;;;;;33.27;6.40;;;8.00;99.90;;;;;;5115937;28;20579;-50
2023/12/11 04:06:04;;;;;;;20.43;5.20;;;7.90;99.90;;;;;;5116033;28;20233;-50
2023/12/11 04:08:31;;;;;;;24.80;5.20;;;7.90;99.90;;;;;;5115932;28;20673;-50
2023/12/11 04:10:57;;;;;;;28.60;5.33;;;7.90;99.90;;;;;;5116042;28;20612;-50
2023/12/11 04:13:22;;;;;;;32.77;5.37;;;8.00;99.90;;;;;;5115688;28;20418;-50
2023/12/11 04:15:48;;;;;;;21.00;5.00;;;8.10;99.90;;;;;;5116045;28;20451;-50
2023/12/11 04:18:13;;;;;;;34.40;6.47;;;8.10;99.90;;;;;;5115843;28;20196;-50
2023/12/11 04:20:39;;;;;;;24.63;5.73;;;8.10;99.90;;;;;;5115872;28;20180;-50
2023/12/11 04:23:04;;;;;;;27.00;5.23;;;8.20;99.90;;;;;;5115631;28;20283;-50
2023/12/11 04:25:30;;;;;;;31.20;5.30;;;8.20;99.90;;;;;;5115493;28;20177;-50
2023/12/11 04:27:56;;;;;;;49.63;6.60;;;8.20;99.90;;;;;;5115623;28;20211;-50
2023/12/11 04:30:21;;;;;;;39.20;6.03;;;8.20;99.90;;;;;;5115643;28;20260;-50
2023/12/11 04:32:47;;;;;;;28.20;5.70;;;8.30;99.90;;;;;;5115572;28;20172;-50
2023/12/11 04:35:13;;;;;;;22.93;4.53;;;8.30;99.90;;;;;;5115505;28;20181;-50
2023/12/11 04:37:38;;;;;;;35.00;5.77;;;8.30;99.90;;;;;;5115490;28;20609;-50
2023/12/11 04:40:05;;;;;;;38.10;5.90;;;8.40;99.90;;;;;;5115397;28;20453;-51
2023/12/11 04:42:31;;;;;;;30.93;5.43;;;8.40;99.90;;;;;;5115412;28;20184;-50
2023/12/11 04:44:56;;;;;;;32.93;6.00;;;8.30;99.90;;;;;;5115124;28;20799;-50
2023/12/11 04:47:22;;;;;;;27.03;6.10;;;8.30;99.90;;;;;;5115179;28;20212;-50
2023/12/11 04:49:47;;;;;;;40.10;6.03;;;8.40;99.90;;;;;;5115519;28;20601;-50
2023/12/11 04:52:13;;;;;;;29.03;6.07;;;8.50;99.90;;;;;;5115234;28;20189;-50
2023/12/11 04:54:40;;;;;;;41.03;6.87;;;8.40;99.90;;;;;;5115137;28;20181;-49
2023/12/11 04:57:06;;;;;;;35.20;6.00;;;8.40;99.90;;;;;;5115403;28;20196;-49
2023/12/11 04:59:31;;;;;;;40.33;7.00;;;8.40;99.90;;;;;;5114720;28;20419;-49
2023/12/11 05:01:57;;;;;;;37.60;5.63;;;8.40;99.90;;;;;;5114976;28;20216;-50
2023/12/11 05:04:23;;;;;;;29.77;6.50;;;8.50;99.90;;;;;;5114833;28;20233;-50
2023/12/11 05:06:48;;;;;;;47.13;7.60;;;8.50;99.90;;;;;;5114695;28;20224;-50
2023/12/11 05:09:14;;;;;;;33.10;6.77;;;8.50;99.90;;;;;;5115141;28;20601;-50
2023/12/11 05:11:39;;;;;;;42.37;6.53;;;8.50;99.90;;;;;;5114958;28;20188;-50
2023/12/11 05:14:05;;;;;;;38.60;7.20;;;8.50;99.90;;;;;;5114432;28;20267;-50
2023/12/11 05:16:30;;;;;;;41.40;6.80;;;8.60;99.90;;;;;;5114958;28;20278;-50
2023/12/11 05:18:56;;;;;;;35.70;7.50;;;8.50;99.90;;;;;;5114642;28;20186;-50
2023/12/11 05:21:22;;;;;;;43.80;6.70;;;8.50;99.90;;;;;;5114532;28;20176;-50
2023/12/11 05:23:47;;;;;;;38.93;8.17;;;8.50;99.90;;;;;;5114476;28;20212;-50
2023/12/11 05:26:22;;;;;;;48.43;8.40;;;8.50;99.90;;;;;;5114780;28;20177;-50
2023/12/11 05:28:48;;;;;;;59.60;8.07;;;8.50;99.90;;;;;;5114685;28;20207;-50
2023/12/11 05:31:14;;;;;;;47.03;7.70;;;8.50;99.90;;;;;;5114603;28;20414;-50
2023/12/11 05:33:40;;;;;;;36.40;8.10;;;8.50;99.90;;;;;;5114198;28;20184;-50
2023/12/11 05:36:07;;;;;;;49.73;8.10;;;8.50;99.90;;;;;;5114268;28;20417;-50
2023/12/11 05:38:33;;;;;;;46.77;8.40;;;8.50;99.90;;;;;;5114318;28;20248;-50
2023/12/11 05:40:58;;;;;;;45.70;8.00;;;8.50;99.90;;;;;;5114346;28;20886;-50
2023/12/11 05:43:24;;;;;;;75.50;9.60;;;8.50;99.90;;;;;;5114339;28;20176;-50
2023/12/11 05:45:50;;;;;;;40.87;8.20;;;8.50;99.90;;;;;;5114311;28;20181;-50
2023/12/11 05:48:15;;;;;;;42.20;7.90;;;8.50;99.90;;;;;;5114329;28;20554;-50
2023/12/11 05:50:41;;;;;;;49.33;8.47;;;8.50;99.90;;;;;;5114300;28;20187;-50
2023/12/11 05:53:07;;;;;;;40.70;7.87;;;8.50;99.90;;;;;;5113863;28;20187;-50
2023/12/11 05:55:33;;;;;;;38.97;8.20;;;8.50;99.90;;;;;;5113834;28;20177;-50
2023/12/11 05:57:58;;;;;;;45.67;9.73;;;8.50;99.90;;;;;;5113185;28;20280;-50
2023/12/11 06:00:24;;;;;;;38.93;7.70;;;8.50;99.90;;;;;;5114129;28;20272;-50
2023/12/11 06:02:50;;;;;;;40.77;7.83;;;8.50;99.90;;;;;;5114005;28;20245;-50
2023/12/11 06:05:15;;;;;;;42.37;8.23;;;8.50;99.90;;;;;;5113952;28;20236;-50
2023/12/11 06:07:41;;;;;;;49.60;7.60;;;8.50;99.90;;;;;;5113619;28;20246;-50
2023/12/11 06:10:07;;;;;;;53.20;9.37;;;8.50;99.90;;;;;;5114073;28;20193;-50
2023/12/11 06:12:33;;;;;;;32.20;8.83;;;8.50;99.90;;;;;;5113639;28;20407;-49
2023/12/11 06:14:58;;;;;;;60.70;9.63;;;8.50;99.90;;;;;;5113782;28;20183;-50
2023/12/11 06:17:24;;;;;;;51.00;9.00;;;8.50;99.90;;;;;;5113644;28;20184;-50
2023/12/11 06:19:50;;;;;;;72.97;9.87;;;8.50;99.90;;;;;;5113559;28;20177;-50
2023/12/11 06:22:16;;;;;;;37.57;7.90;;;8.40;99.90;;;;;;5114134;28;20204;-49
2023/12/11 06:24:42;;;;;;;50.40;8.80;;;8.40;99.90;;;;;;5113918;28;20465;-50
2023/12/11 06:27:08;;;;;;;38.63;7.80;;;8.40;99.90;;;;;;5113693;28;20211;-50
2023/12/11 06:29:34;;;;;;;44.07;7.97;;;8.40;99.90;;;;;;5113488;28;20180;-48
2023/12/11 06:31:59;;;;;;;33.90;7.83;;;8.40;99.90;;;;;;5113957;28;20434;-49
2023/12/11 06:34:25;;;;;;;44.37;8.20;;;8.40;99.90;;;;;;5113269;28;20772;-49
2023/12/11 06:36:50;;;;;;;45.07;9.43;;;8.30;99.90;;;;;;5113761;28;20176;-49
2023/12/11 06:39:17;;;;;;;52.73;8.03;;;8.40;99.90;;;;;;5113354;28;20184;-49
2023/12/11 06:41:43;;;;;;;42.40;8.73;;;8.30;99.90;;;;;;5113790;28;20229;-49
2023/12/11 06:44:09;;;;;;;44.97;8.77;;;8.20;99.90;;;;;;5113872;28;20502;-49
2023/12/11 06:46:36;;;;;;;49.93;9.37;;;8.20;99.90;;;;;;5113702;28;20189;-50
2023/12/11 06:49:02;;;;;;;54.37;8.97;;;8.20;99.90;;;;;;5113415;28;20785;-49
2023/12/11 06:51:29;;;;;;;47.93;8.73;;;8.20;99.90;;;;;;5113581;28;20419;-49
2023/12/11 06:54:00;;;;;;;43.30;9.40;;;8.20;99.90;;;;;;5113526;28;20180;-50
2023/12/11 06:56:30;;;;;;;45.80;9.47;;;8.20;99.90;;;;;;5113476;28;20414;-50
2023/12/11 06:58:56;;;;;;;42.70;9.10;;;8.20;99.90;;;;;;5113479;28;20455;-50
2023/12/11 07:01:33;;;;;;;29.27;8.80;;;8.20;99.90;;;;;;5113684;28;20415;-50
2023/12/11 07:03:59;;;;;;;46.87;10.17;;;8.20;99.90;;;;;;5113739;28;20176;-49
2023/12/11 07:06:25;;;;;;;42.60;9.30;;;8.30;99.90;;;;;;5113190;28;20986;-49
2023/12/11 07:08:50;;;;;;;52.50;9.23;;;8.40;99.90;;;;;;5114396;28;20711;-50
2023/12/11 07:11:17;;;;;;;49.07;8.87;;;8.40;99.90;;;;;;5117556;28;20219;-49
2023/12/11 07:13:42;;;;;;;60.37;9.50;;;8.40;99.90;;;;;;5117262;28;20227;-49
2023/12/11 07:16:08;;;;;;;42.70;8.63;;;8.40;99.90;;;;;;5117453;28;20895;-49
2023/12/11 07:18:34;;;;;;;37.30;9.23;;;8.40;99.90;;;;;;5117023;28;20181;-49
2023/12/11 07:21:00;;;;;;;36.20;7.93;;;8.40;99.90;;;;;;5117211;28;20225;-50
2023/12/11 07:23:25;;;;;;;33.93;8.30;;;8.40;99.90;;;;;;5117150;28;20623;-49
2023/12/11 07:25:51;;;;;;;39.10;8.10;;;8.50;99.90;;;;;;5116611;28;20182;-49
2023/12/11 07:28:16;;;;;;;43.77;8.07;;;8.50;99.90;;;;;;5116768;28;20292;-49
2023/12/11 07:30:42;;;;;;;36.90;7.80;;;8.50;99.90;;;;;;5117174;28;20181;-49
2023/12/11 07:33:08;;;;;;;44.93;7.60;;;8.50;99.90;;;;;;5116508;28;20196;-49
2023/12/11 07:35:35;;;;;;;39.20;7.70;;;8.50;99.90;;;;;;5116862;28;20192;-49
2023/12/11 07:38:02;;;;;;;41.43;7.47;;;8.50;99.90;;;;;;5116639;28;20918;-48
2023/12/11 07:40:28;;;;;;;33.33;6.87;;;8.50;99.90;;;;;;5116612;28;20955;-49
2023/12/11 07:42:54;;;;;;;36.83;7.03;;;8.50;99.90;;;;;;5116336;28;20411;-48
2023/12/11 07:45:19;;;;;;;41.83;6.50;;;8.50;99.90;;;;;;5116405;28;20176;-49
2023/12/11 07:47:45;;;;;;;32.27;7.20;;;8.40;99.90;;;;;;5116358;28;20195;-50
2023/12/11 07:50:10;;;;;;;28.20;6.77;;;8.40;99.90;;;;;;5116428;28;20181;-49
2023/12/11 07:52:36;;;;;;;36.50;7.77;;;8.40;99.90;;;;;;5116646;28;20278;-49
2023/12/11 07:55:02;;;;;;;28.67;6.53;;;8.40;99.90;;;;;;5116453;28;20185;-49
2023/12/11 07:57:28;;;;;;;28.10;6.00;;;8.50;99.90;;;;;;5116208;28;20618;-49
2023/12/11 07:59:54;;;;;;;42.20;8.27;;;8.50;99.90;;;;;;5116316;28;20654;-49
2023/12/11 08:02:19;;;;;;;37.80;6.73;;;8.40;99.90;;;;;;5103136;28;20430;-49
2023/12/11 08:04:45;;;;;;;33.77;7.33;;;8.50;99.90;;;;;;5095933;28;20189;-49
2023/12/11 08:07:15;;;;;;;28.63;7.10;;;8.50;99.90;;;;;;5095992;28;20675;-50
2023/12/11 08:09:40;;;;;;;33.53;7.17;;;8.60;99.90;;;;;;5095441;28;21160;-49
2023/12/11 08:12:06;;;;;;;36.47;7.03;;;8.70;99.90;;;;;;5095780;28;20458;-49
2023/12/11 08:14:32;;;;;;;26.40;6.63;;;8.70;99.90;;;;;;5095350;28;20227;-49
2023/12/11 08:16:58;;;;;;;42.00;7.23;;;8.70;99.90;;;;;;5095746;28;20216;-48
2023/12/11 08:19:24;;;;;;;37.23;8.10;;;8.80;99.90;;;;;;5095609;28;20480;-50
2023/12/11 08:21:50;;;;;;;35.47;8.37;;;8.80;99.90;;;;;;5094245;28;20422;-49
2023/12/11 08:24:16;;;;;;;34.20;7.63;;;8.80;99.90;;;;;;5095466;28;20423;-49
2023/12/11 08:26:43;;;;;;;35.77;7.70;;;8.80;99.90;;;;;;5095252;28;20658;-50
2023/12/11 08:29:09;;;;;;;34.73;8.63;;;8.80;99.90;;;;;;5094996;28;20783;-49
2023/12/11 08:31:34;;;;;;;37.27;8.60;;;8.80;99.90;;;;;;5095211;28;20412;-49
2023/12/11 08:34:00;;;;;;;32.40;7.93;;;8.80;99.90;;;;;;5095265;28;20212;-49
2023/12/11 08:36:26;;;;;;;43.07;8.10;;;8.80;99.90;;;;;;5095610;28;20185;-49
2023/12/11 08:38:51;;;;;;;36.13;9.33;;;8.90;99.90;;;;;;5095213;28;20181;-48
2023/12/11 08:41:17;;;;;;;29.70;8.97;;;8.80;99.90;;;;;;5094966;28;20181;-48
2023/12/11 08:43:43;;;;;;;30.47;8.40;;;8.80;99.90;;;;;;5095057;28;20176;-48
2023/12/11 08:46:08;;;;;;;30.83;8.67;;;8.90;99.90;;;;;;5094856;28;20181;-49
2023/12/11 08:48:34;;;;;;;35.37;7.80;;;8.90;99.90;;;;;;5094793;28;20316;-49
2023/12/11 08:50:59;;;;;;;28.57;7.33;;;8.90;99.90;;;;;;5094940;28;20177;-49
2023/12/11 08:53:25;;;;;;;33.10;7.37;;;9.00;99.90;;;;;;5095073;28;20207;-49
2023/12/11 08:55:51;;;;;;;31.53;7.97;;;9.00;99.90;;;;;;5094684;28;20327;-48
2023/12/11 08:58:17;;;;;;;36.83;7.30;;;9.00;99.90;;;;;;5094965;28;20190;-49
2023/12/11 09:00:43;;;;;;;37.10;9.07;;;9.00;99.90;;;;;;5094787;28;20414;-49
2023/12/11 09:03:10;;;;;;;33.03;7.03;;;9.00;99.90;;;;;;5094972;28;20219;-49
2023/12/11 09:05:35;;;;;;;33.90;8.97;;;9.00;99.90;;;;;;5094259;28;20872;-49
2023/12/11 09:08:01;;;;;;;40.63;8.97;;;9.00;99.90;;;;;;5094439;28;20291;-49
2023/12/11 09:10:27;;;;;;;45.40;7.60;;;9.00;99.90;;;;;;5094590;28;20268;-49
2023/12/11 09:12:53;;;;;;;39.03;8.47;;;9.00;99.90;;;;;;5094622;28;20188;-49
2023/12/11 09:15:19;;;;;;;29.67;8.17;;;9.00;99.90;;;;;;5094804;28;20197;-49
2023/12/11 09:17:45;;;;;;;30.60;6.47;;;9.00;99.90;;;;;;5094748;28;20454;-49
2023/12/11 09:20:11;;;;;;;32.37;6.67;;;8.90;99.90;;;;;;5094608;28;20423;-49
2023/12/11 09:22:40;;;;;;;29.23;7.43;;;8.90;99.90;;;;;;5094059;28;20420;-49
2023/12/11 09:25:06;;;;;;;20.87;6.60;;;8.80;99.90;;;;;;5094361;28;20185;-49
2023/12/11 09:27:31;;;;;;;22.73;6.73;;;8.80;99.90;;;;;;5094264;28;20460;-49
2023/12/11 09:29:57;;;;;;;22.57;6.47;;;8.80;99.90;;;;;;5094168;28;20661;-48
2023/12/11 09:32:22;;;;;;;27.13;6.03;;;8.80;99.90;;;;;;5094246;28;20181;-48
2023/12/11 09:34:48;;;;;;;23.30;7.70;;;8.70;99.90;;;;;;5094295;28;20178;-49
2023/12/11 09:37:15;;;;;;;28.53;8.50;;;8.70;99.90;;;;;;5093759;28;20188;-49
2023/12/11 09:39:41;;;;;;;21.07;6.63;;;8.70;99.90;;;;;;5093738;28;20612;-49
2023/12/11 09:42:08;;;;;;;23.33;7.07;;;8.80;99.90;;;;;;5094008;28;20416;-49
2023/12/11 09:44:34;;;;;;;35.00;7.87;;;8.80;99.90;;;;;;5093888;28;20412;-49
2023/12/11 09:47:21;;;;;;;29.73;7.53;;;8.80;99.90;;;;;;5093627;28;20889;-49
2023/12/11 09:49:47;;;;;;;29.37;7.97;;;8.90;99.90;;;;;;5093781;28;20402;-49
2023/12/11 09:52:13;;;;;;;35.03;8.50;;;8.90;99.90;;;;;;5093677;28;20767;-49
2023/12/11 09:54:39;;;;;;;43.37;8.20;;;8.90;99.90;;;;;;5094024;28;20188;-49
2023/12/11 09:57:09;;;;;;;35.03;8.40;;;9.00;99.90;;;;;;5093898;28;20423;-49
2023/12/11 09:59:34;;;;;;;37.83;8.23;;;9.00;99.90;;;;;;5093702;28;20517;-49
2023/12/11 10:02:01;;;;;;;32.30;8.73;;;9.00;99.90;;;;;;5093479;28;20495;-48
2023/12/11 10:04:26;;;;;;;39.03;8.17;;;9.10;99.90;;;;;;5093319;28;20189;-49
2023/12/11 10:06:52;;;;;;;44.20;9.37;;;9.00;99.90;;;;;;5093065;28;20477;-49
2023/12/11 10:09:34;;;;;;;59.97;8.50;;;9.00;99.90;;;;;;5093286;28;20184;-49
2023/12/11 10:12:02;;;;;;;28.97;7.27;;;9.00;99.90;;;;;;5093782;28;20173;-49
2023/12/11 10:14:30;;;;;;;33.50;7.70;;;9.10;99.90;;;;;;5093630;28;20422;-48
2023/12/11 10:17:13;;;;;;;45.47;8.30;;;9.10;99.90;;;;;;5093514;28;20412;-49
2023/12/11 10:19:40;;;;;;;39.40;8.97;;;9.20;99.90;;;;;;5093422;28;20404;-48
2023/12/11 10:22:05;;;;;;;27.07;7.13;;;9.30;99.90;;;;;;5093120;28;20498;-48
2023/12/11 10:24:31;;;;;;;20.20;5.87;;;9.40;99.90;;;;;;5093753;28;20503;-49
2023/12/11 10:26:57;;;;;;;25.33;7.90;;;9.50;99.90;;;;;;5093264;28;20715;-49
2023/12/11 10:29:24;;;;;;;35.27;5.63;;;9.50;99.90;;;;;;5093486;28;20212;-49
2023/12/11 10:31:52;;;;;;;25.97;5.87;;;9.60;99.90;;;;;;5093219;28;20415;-49
2023/12/11 10:34:17;;;;;;;28.20;6.00;;;9.60;96.70;;;;;;5093316;28;20407;-50
2023/12/11 10:36:50;;;;;;;19.37;5.80;;;9.60;65.00;;;;;;5093397;28;20738;-49
2023/12/11 10:39:16;;;;;;;30.47;6.67;;;9.60;80.90;;;;;;5092902;28;20264;-49
2023/12/11 10:41:45;;;;;;;23.43;5.87;;;9.70;99.60;;;;;;5093203;28;20416;-49
2023/12/11 10:44:25;;;;;;;23.50;5.50;;;9.80;82.20;;;;;;5094440;28;20932;-49
2023/12/11 10:46:53;;;;;;;22.83;5.60;;;9.80;27.20;;;;;;5097226;28;20410;-50
2023/12/11 10:49:19;;;;;;;20.50;4.93;;;9.90;1.00;;;;;;5097291;28;20550;-49
2023/12/11 10:51:46;;;;;;;38.53;5.27;;;9.90;1.00;;;;;;5096877;28;20427;-49
2023/12/11 10:54:12;;;;;;;22.13;4.80;;;9.90;1.00;;;;;;5097336;28;20425;-48
2023/12/11 10:56:46;;;;;;;21.60;4.50;;;9.90;1.00;;;;;;5097234;28;20407;-49
2023/12/11 10:59:12;;;;;;;19.00;5.43;;;9.80;1.00;;;;;;5096631;28;20515;-49
2023/12/11 11:01:44;;;;;;;22.30;4.80;;;9.80;1.00;;;;;;5097324;28;20415;-49
2023/12/11 11:04:11;;;;;;;23.17;4.60;;;9.70;1.00;;;;;;5096632;28;20423;-49
2023/12/11 11:06:46;;;;;;;21.70;4.60;;;9.70;1.00;;;;;;5096552;28;20459;-48
2023/12/11 11:09:16;;;;;;;19.80;4.73;;;9.70;1.00;;;;;;5096812;28;20523;-49
2023/12/11 11:11:52;;;;;;;23.83;4.67;;;9.70;1.00;;;;;;5096770;28;20443;-49
2023/12/11 11:14:17;;;;;;;18.70;4.83;;;9.70;1.00;;;;;;5096466;28;20414;-49
2023/12/11 11:16:53;;;;;;;15.00;3.87;;;9.70;1.00;;;;;;5097178;28;20412;-49
2023/12/11 11:19:19;;;;;;;18.30;5.40;;;9.80;1.00;;;;;;5097053;28;20174;-50
2023/12/11 11:22:19;;;;;;;24.90;5.30;;;9.90;1.00;;;;;;5096240;28;21014;-49
2023/12/11 11:24:45;;;;;;;24.10;4.90;;;10.00;1.00;;;;;;5096509;28;20165;-49
2023/12/11 11:27:41;;;;;;;21.10;4.53;;;10.00;1.00;;;;;;5095997;28;20455;-48
2023/12/11 11:30:08;;;;;;;28.50;4.70;;;9.80;1.00;;;;;;5085771;28;20693;-49
2023/12/11 11:32:55;;;;;;;19.40;4.50;;;9.80;1.00;;;;;;5096466;28;20426;-49
2023/12/11 11:35:46;;;;;;;21.43;5.17;;;9.70;1.00;;;;;;5096182;28;20897;-49
2023/12/11 11:38:16;;;;;;;13.93;4.10;;;9.70;1.00;;;;;;5096577;28;20468;-49
2023/12/11 11:40:43;;;;;;;18.90;4.27;;;9.80;1.00;;;;;;5095881;28;20510;-48
2023/12/11 11:43:10;;;;;;;15.90;4.80;;;9.80;1.00;;;;;;5096393;28;20960;-49
2023/12/11 11:45:36;;;;;;;26.03;4.97;;;9.90;1.00;;;;;;5095987;28;20416;-48
2023/12/11 11:48:01;;;;;;;22.40;5.23;;;10.00;1.00;;;;;;5096103;28;20505;-49
2023/12/11 11:50:27;;;;;;;13.57;4.57;;;10.00;1.00;;;;;;5095901;28;20590;-49
2023/12/11 11:53:07;;;;;;;14.70;4.67;;;10.00;1.00;;;;;;5096208;28;20177;-49
2023/12/11 11:55:35;;;;;;;27.30;5.10;;;10.10;1.00;;;;;;5095010;28;20191;-49
2023/12/11 11:58:12;;;;;;;23.47;4.73;;;10.10;1.00;;;;;;5096003;28;20480;-48
2023/12/11 12:00:37;;;;;;;11.07;3.93;;;10.20;1.00;;;;;;5095918;28;20453;-48
2023/12/11 12:03:04;;;;;;;17.33;5.53;;;10.00;99.90;;;;;;5095942;28;20412;-48
2023/12/11 12:05:30;;;;;;;17.60;4.50;;;10.00;1.00;;;;;;5095749;28;20316;-48
2023/12/11 12:07:56;;;;;;;15.77;4.40;;;10.00;1.00;;;;;;5095702;28;20451;-49
2023/12/11 12:10:23;;;;;;;14.43;4.60;;;10.00;1.00;;;;;;5095626;28;20426;-48
2023/12/11 12:12:55;;;;;;;15.43;4.47;;;10.00;1.00;;;;;;5095782;28;20189;-48
2023/12/11 12:15:21;;;;;;;18.03;4.90;;;10.00;1.00;;;;;;5095682;28;20423;-48
2023/12/11 12:17:47;;;;;;;18.33;4.50;;;9.90;1.00;;;;;;5095731;28;20426;-48
2023/12/11 12:20:14;;;;;;;17.63;4.70;;;9.90;1.00;;;;;;5095652;28;20174;-48
2023/12/11 12:22:57;;;;;;;16.20;4.67;;;9.90;1.00;;;;;;5095556;28;20189;-49
2023/12/11 12:25:26;;;;;;;19.40;4.80;;;9.90;1.00;;;;;;5095339;28;20904;-49
2023/12/11 12:27:53;;;;;;;17.73;5.27;;;9.90;1.00;;;;;;5095233;28;20458;-49
2023/12/11 12:30:19;;;;;;;18.40;4.60;;;10.00;1.00;;;;;;5095318;28;20426;-49
2023/12/11 12:32:48;;;;;;;18.80;4.30;;;9.90;1.00;;;;;;5095127;28;20415;-49
2023/12/11 12:35:18;;;;;;;20.20;5.30;;;9.80;1.00;;;;;;5095330;28;20214;-48
2023/12/11 12:37:46;;;;;;;16.37;4.97;;;9.80;1.00;;;;;;5095347;28;20423;-48
2023/12/11 12:40:12;;;;;;;8.90;4.60;;;9.70;1.00;;;;;;5095129;28;20416;-49
2023/12/11 12:42:39;;;;;;;10.90;5.10;;;9.60;1.00;;;;;;5095155;28;20418;-48
2023/12/11 12:45:05;;;;;;;15.50;5.50;;;9.60;14.50;;;;;;5094607;28;20426;-49
2023/12/11 12:47:32;;;;;;;13.87;5.00;;;9.60;40.30;;;;;;5094377;28;21030;-49